Terminal Aerodrome Forecast
Issued by NWS Burlington, VT

Home | Current Version | Previous Version | Text Only | Print | Product List | Glossary On
Versions: 1 2 3 4 5 6 7 8 9 10 11 12 13 14 15 16
000
FTUS41 KBTV 292300
TAFBTV
TAF
KBTV 292323Z 3000/3024 VRB03KT P6SM BKN200
     FM300800 17005KT P6SM BKN150 BKN200
     FM301400 18012G20KT P6SM BKN100 BKN150=

USA.gov is the U.S. government's official web portal to all federal, state and local government web resources and services.